Time;durP1;ratioP1;P1;durP2;ratioP2;P2;SDS_P1;SDS_P2;PMS_P1;PMS_P2;Temp;Humidity;BMP_temperature;BMP_pressure;BME280_temperature;BME280_humidity;BME280_pressure;Samples;Min_cycle;Max_cycle;Signal;HPM_P1;HPM_P2
2023/05/16 00:01:12;;;;;;;27.03;15.60;;;12.40;99.90;;;;;;4964884;28;20203;-84
2023/05/16 00:03:38;;;;;;;26.27;14.50;;;12.40;99.90;;;;;;4964206;28;20212;-83
2023/05/16 00:06:04;;;;;;;26.00;13.93;;;12.40;99.90;;;;;;4951856;28;20191;-85
2023/05/16 00:08:29;;;;;;;33.50;15.90;;;12.30;99.90;;;;;;4958607;28;20184;-85
2023/05/16 00:10:55;;;;;;;24.93;14.83;;;12.30;99.90;;;;;;4950099;28;20438;-86
2023/05/16 00:13:23;;;;;;;27.00;15.00;;;12.30;99.90;;;;;;4962833;28;20202;-85
2023/05/16 00:15:54;;;;;;;29.13;13.98;;;12.30;99.90;;;;;;4949992;28;20317;-85
2023/05/16 00:18:20;;;;;;;24.00;13.57;;;12.30;99.90;;;;;;4950238;28;20367;-85
2023/05/16 00:20:47;;;;;;;23.02;14.20;;;12.30;99.90;;;;;;4964375;28;20200;-85
2023/05/16 00:23:13;;;;;;;30.60;15.60;;;12.20;99.90;;;;;;4964165;28;20208;-85
2023/05/16 00:25:39;;;;;;;28.13;16.30;;;12.20;99.90;;;;;;4965466;28;20243;-84
2023/05/16 00:28:05;;;;;;;23.00;14.47;;;12.20;99.90;;;;;;4962376;28;20587;-85
2023/05/16 00:30:31;;;;;;;23.20;14.32;;;12.20;99.90;;;;;;4951419;28;21129;-85
2023/05/16 00:32:56;;;;;;;28.13;15.13;;;12.10;99.90;;;;;;4947367;28;20192;-84
2023/05/16 00:35:22;;;;;;;42.17;17.10;;;12.10;99.90;;;;;;4954465;28;21144;-83
2023/05/16 00:37:49;;;;;;;31.23;16.87;;;12.10;99.90;;;;;;4956312;28;20779;-84
2023/05/16 00:40:14;;;;;;;27.17;15.40;;;12.10;99.90;;;;;;4960391;28;20459;-83
2023/05/16 00:42:40;;;;;;;29.03;16.40;;;12.10;99.90;;;;;;4966240;28;20228;-86
2023/05/16 00:45:06;;;;;;;30.20;16.70;;;12.10;99.90;;;;;;4952539;28;20219;-87
2023/05/16 00:47:32;;;;;;;31.48;17.05;;;12.10;99.90;;;;;;4953533;28;21409;-84
2023/05/16 00:49:57;;;;;;;32.13;17.57;;;12.10;99.90;;;;;;4960742;28;20247;-84
2023/05/16 00:52:23;;;;;;;33.13;17.80;;;12.10;99.90;;;;;;4962478;28;20184;-83
2023/05/16 00:54:50;;;;;;;37.80;16.55;;;12.00;99.90;;;;;;4962123;28;20239;-84
2023/05/16 00:57:16;;;;;;;39.10;17.45;;;12.00;99.90;;;;;;4961253;28;20629;-83
2023/05/16 00:59:43;;;;;;;39.07;18.03;;;12.00;99.90;;;;;;4947248;28;20192;-83
2023/05/16 01:02:08;;;;;;;36.75;20.13;;;12.00;99.90;;;;;;4957448;28;21257;-84
2023/05/16 01:04:34;;;;;;;31.23;18.20;;;12.00;99.90;;;;;;4957533;28;20298;-83
2023/05/16 01:07:01;;;;;;;32.30;17.60;;;11.90;99.90;;;;;;4960388;28;20837;-84
2023/05/16 01:09:27;;;;;;;31.58;16.85;;;11.90;99.90;;;;;;4960128;28;20177;-84
2023/05/16 01:12:10;;;;;;;37.23;19.43;;;11.90;99.90;;;;;;4942820;28;20197;-84
2023/05/16 01:14:55;;;;;;;34.83;17.48;;;11.90;99.90;;;;;;4945043;28;20212;-84
2023/05/16 01:17:45;;;;;;;29.92;15.60;;;11.90;99.90;;;;;;4963223;28;20825;-85
2023/05/16 01:20:29;;;;;;;33.03;15.50;;;11.80;99.90;;;;;;4960300;28;20781;-86
2023/05/16 01:23:30;;;;;;;45.78;18.70;;;11.80;99.90;;;;;;4944942;28;20208;-85
2023/05/16 01:25:57;;;;;;;38.45;19.80;;;11.80;99.90;;;;;;4952206;28;20203;-87
2023/05/16 01:28:23;;;;;;;44.42;19.95;;;11.80;99.90;;;;;;4963826;28;20212;-87
2023/05/16 01:30:50;;;;;;;43.10;21.83;;;11.80;99.90;;;;;;4948700;28;20189;-87
2023/05/16 01:33:16;;;;;;;37.20;18.70;;;11.80;99.90;;;;;;4962235;28;20223;-84
2023/05/16 01:35:56;;;;;;;41.10;21.40;;;11.80;99.90;;;;;;4960532;28;20195;-85
2023/05/16 01:38:26;;;;;;;36.75;19.27;;;11.70;99.90;;;;;;4961771;28;20574;-83
2023/05/16 01:41:26;;;;;;;34.83;17.52;;;11.70;99.90;;;;;;4962715;28;20188;-85
2023/05/16 01:44:04;;;;;;;34.80;19.45;;;11.70;99.90;;;;;;4960923;28;20603;-84
2023/05/16 01:46:36;;;;;;;43.38;22.27;;;11.70;99.90;;;;;;4954161;28;20528;-85
2023/05/16 01:49:23;;;;;;;40.58;20.33;;;11.70;99.90;;;;;;4962746;28;20926;-85
2023/05/16 01:51:54;;;;;;;41.42;19.27;;;11.70;99.90;;;;;;4949451;28;20184;-85
2023/05/16 01:54:23;;;;;;;44.63;20.85;;;11.70;99.90;;;;;;4961709;28;20207;-85
2023/05/16 01:56:55;;;;;;;45.20;21.50;;;11.70;99.90;;;;;;4947030;28;20184;-85
2023/05/16 01:59:23;;;;;;;31.00;17.05;;;11.60;99.90;;;;;;4954570;28;20204;-84
2023/05/16 02:01:48;;;;;;;46.38;22.63;;;11.60;99.90;;;;;;4949994;28;20226;-83
2023/05/16 02:04:14;;;;;;;35.90;16.97;;;11.60;99.90;;;;;;4961352;28;20196;-85
2023/05/16 02:06:41;;;;;;;44.13;20.88;;;11.60;99.90;;;;;;4947703;28;20214;-84
2023/05/16 02:09:07;;;;;;;45.00;21.05;;;11.60;99.90;;;;;;4964979;28;20181;-84
2023/05/16 02:11:33;;;;;;;35.17;17.23;;;11.60;99.90;;;;;;4945333;28;20177;-84
2023/05/16 02:13:58;;;;;;;40.63;21.27;;;11.60;99.90;;;;;;4943283;28;20315;-83
2023/05/16 02:16:24;;;;;;;41.00;20.03;;;11.50;99.90;;;;;;4961341;28;20432;-84
2023/05/16 02:18:49;;;;;;;39.33;18.73;;;11.60;99.90;;;;;;4946113;28;20835;-84
2023/05/16 02:21:15;;;;;;;36.20;17.50;;;11.60;99.90;;;;;;4961439;28;20186;-84
2023/05/16 02:23:40;;;;;;;45.53;18.90;;;11.60;99.90;;;;;;4963997;28;20892;-84
2023/05/16 02:26:06;;;;;;;40.13;18.50;;;11.60;99.90;;;;;;4961226;28;20184;-84
2023/05/16 02:28:32;;;;;;;46.23;18.23;;;11.50;99.90;;;;;;4946904;28;20187;-84
2023/05/16 02:30:58;;;;;;;47.37;19.53;;;11.50;99.90;;;;;;4959261;28;20653;-84
2023/05/16 02:33:28;;;;;;;38.22;18.67;;;11.50;99.90;;;;;;4949769;28;20238;-84
2023/05/16 02:35:54;;;;;;;41.20;19.42;;;11.50;99.90;;;;;;4958791;28;20187;-85
2023/05/16 02:38:20;;;;;;;39.30;19.98;;;11.50;99.90;;;;;;4959789;28;20196;-84
2023/05/16 02:40:49;;;;;;;39.25;19.30;;;11.50;99.90;;;;;;4941949;28;20246;-84
2023/05/16 02:43:14;;;;;;;36.72;18.65;;;11.40;99.90;;;;;;4957919;28;20238;-86
2023/05/16 02:45:40;;;;;;;38.17;18.00;;;11.40;99.90;;;;;;4957695;28;20207;-86
2023/05/16 02:48:06;;;;;;;42.53;19.90;;;11.40;99.90;;;;;;4956665;28;21995;-86
2023/05/16 02:50:33;;;;;;;35.88;18.17;;;11.40;99.90;;;;;;4939743;28;20189;-85
2023/05/16 02:53:01;;;;;;;42.13;20.83;;;;;;;;;;4960871;28;20204;-85
2023/05/16 02:55:27;;;;;;;43.75;19.08;;;11.40;99.90;;;;;;4942131;28;20184;-87
2023/05/16 02:57:52;;;;;;;35.75;17.65;;;11.40;99.90;;;;;;4943559;28;20664;-85
2023/05/16 03:00:19;;;;;;;42.90;20.17;;;11.30;99.90;;;;;;4945314;28;20198;-85
2023/05/16 03:02:45;;;;;;;49.10;20.15;;;;;;;;;;4958564;28;20196;-84
2023/05/16 03:05:10;;;;;;;47.42;19.77;;;11.30;99.90;;;;;;4959157;28;20196;-85
2023/05/16 03:07:37;;;;;;;42.17;21.07;;;11.30;99.90;;;;;;4962923;28;20203;-85
2023/05/16 03:10:03;;;;;;;44.22;20.20;;;11.30;99.90;;;;;;4959077;28;20188;-85
2023/05/16 03:12:28;;;;;;;46.20;20.52;;;11.30;99.90;;;;;;4958543;28;20188;-85
2023/05/16 03:14:54;;;;;;;44.73;20.10;;;11.30;99.90;;;;;;4960368;28;20215;-84
2023/05/16 03:17:20;;;;;;;48.33;19.80;;;11.20;99.90;;;;;;4961537;28;20184;-85
2023/05/16 03:19:46;;;;;;;45.85;18.95;;;11.20;99.90;;;;;;4945878;28;20212;-83
2023/05/16 03:22:12;;;;;;;44.30;19.90;;;11.20;99.90;;;;;;4951469;28;20222;-84
2023/05/16 03:24:37;;;;;;;46.07;21.27;;;11.20;99.90;;;;;;4944812;28;20210;-84
2023/05/16 03:27:03;;;;;;;45.07;19.60;;;11.20;99.90;;;;;;4959954;28;20286;-84
2023/05/16 03:29:29;;;;;;;40.20;18.60;;;11.20;99.90;;;;;;4943438;28;20191;-84
2023/05/16 03:31:55;;;;;;;45.45;20.17;;;11.20;99.90;;;;;;4955603;28;20442;-85
2023/05/16 03:34:21;;;;;;;58.10;22.80;;;11.20;99.90;;;;;;4951666;28;20303;-83
2023/05/16 03:36:48;;;;;;;46.50;22.17;;;11.20;99.90;;;;;;4963662;28;20183;-83
2023/05/16 03:39:14;;;;;;;47.25;20.73;;;11.20;99.90;;;;;;4962041;28;20173;-84
2023/05/16 03:41:40;;;;;;;43.35;21.77;;;11.20;99.90;;;;;;4960868;28;20193;-84
2023/05/16 03:44:05;;;;;;;48.73;21.47;;;11.20;99.90;;;;;;4956491;28;20196;-83
2023/05/16 03:46:31;;;;;;;52.93;22.30;;;11.20;99.90;;;;;;4964186;28;20255;-85
2023/05/16 03:48:56;;;;;;;48.70;20.57;;;11.20;99.90;;;;;;4948915;28;20189;-87
2023/05/16 03:51:22;;;;;;;57.63;21.67;;;11.10;99.90;;;;;;4962553;28;20184;-84
2023/05/16 03:53:47;;;;;;;53.20;22.50;;;11.20;99.90;;;;;;4952499;28;20208;-83
2023/05/16 03:56:13;;;;;;;52.00;23.87;;;;;;;;;;4952980;28;20192;-84
2023/05/16 03:58:39;;;;;;;46.20;20.20;;;11.20;99.90;;;;;;4964801;28;20196;-83
2023/05/16 04:01:05;;;;;;;47.63;23.33;;;11.20;99.90;;;;;;4948338;28;20440;-84
2023/05/16 04:03:32;;;;;;;53.73;23.53;;;11.30;99.90;;;;;;4943202;28;20257;-84
2023/05/16 04:05:58;;;;;;;40.60;19.58;;;;;;;;;;4964444;28;21349;-84
2023/05/16 04:08:24;;;;;;;44.65;18.85;;;11.20;99.90;;;;;;4959633;28;20245;-84
2023/05/16 04:10:50;;;;;;;61.38;22.20;;;11.20;99.90;;;;;;4951557;28;20208;-85
2023/05/16 04:13:16;;;;;;;45.53;20.83;;;11.20;99.90;;;;;;4950712;28;20215;-85
2023/05/16 04:15:41;;;;;;;48.10;19.03;;;11.20;99.90;;;;;;4946889;28;21157;-85
2023/05/16 04:18:08;;;;;;;55.03;20.50;;;11.20;99.90;;;;;;4966279;28;20185;-85
2023/05/16 04:20:35;;;;;;;55.58;19.70;;;;;;;;;;4968253;28;20193;-88
2023/05/16 04:23:01;;;;;;;45.38;18.92;;;;;;;;;;4953530;28;20234;-84
2023/05/16 04:25:26;;;;;;;63.80;25.23;;;11.20;99.90;;;;;;4960158;28;20865;-85
2023/05/16 04:27:52;;;;;;;50.90;20.43;;;;;;;;;;4968847;28;20935;-82
2023/05/16 04:30:18;;;;;;;59.63;24.90;;;11.20;99.90;;;;;;4958832;28;20180;-82
2023/05/16 04:32:44;;;;;;;58.87;25.13;;;11.20;99.90;;;;;;4967518;28;20657;-84
2023/05/16 04:35:09;;;;;;;51.10;22.40;;;11.20;99.90;;;;;;4962731;28;20227;-82
2023/05/16 04:37:35;;;;;;;52.73;21.00;;;11.20;99.90;;;;;;4948691;28;20861;-84
2023/05/16 04:40:01;;;;;;;53.33;23.67;;;11.20;99.90;;;;;;4950901;28;20522;-83
2023/05/16 04:42:26;;;;;;;64.80;25.93;;;11.20;99.90;;;;;;4958668;28;21042;-83
2023/05/16 04:44:52;;;;;;;62.40;24.20;;;11.30;99.90;;;;;;4957666;28;20208;-83
2023/05/16 04:47:17;;;;;;;59.23;24.13;;;11.30;99.90;;;;;;4961986;28;20208;-82
2023/05/16 04:49:43;;;;;;;71.60;24.20;;;11.40;99.90;;;;;;4954616;28;20176;-83
2023/05/16 04:52:10;;;;;;;54.83;22.57;;;11.40;99.90;;;;;;4954686;28;20649;-82
2023/05/16 04:54:36;;;;;;;66.65;24.42;;;11.50;99.90;;;;;;4963802;28;20203;-81
2023/05/16 04:57:02;;;;;;;50.35;22.70;;;11.70;99.90;;;;;;4950922;28;20239;-81
2023/05/16 04:59:28;;;;;;;57.77;23.10;;;11.70;99.90;;;;;;4950045;28;21506;-83
2023/05/16 05:01:53;;;;;;;51.47;22.23;;;11.60;99.90;;;;;;4951178;28;20212;-82
2023/05/16 05:04:19;;;;;;;67.33;26.93;;;11.50;99.90;;;;;;4957985;28;20619;-81
2023/05/16 05:06:44;;;;;;;64.63;23.33;;;11.40;99.90;;;;;;4952241;28;20239;-83
2023/05/16 05:09:10;;;;;;;51.27;22.70;;;11.40;99.90;;;;;;4959274;28;20199;-82
2023/05/16 05:11:35;;;;;;;49.10;20.77;;;11.40;99.90;;;;;;4960141;28;20255;-82
2023/05/16 05:14:01;;;;;;;54.80;21.03;;;11.40;99.90;;;;;;4959255;28;20193;-83
2023/05/16 05:16:26;;;;;;;49.63;22.43;;;11.50;99.90;;;;;;4959249;28;20184;-82
2023/05/16 05:18:52;;;;;;;56.47;25.07;;;11.60;99.90;;;;;;4958884;28;20231;-83
2023/05/16 05:21:19;;;;;;;53.63;22.40;;;11.50;99.90;;;;;;4960393;28;20681;-83
2023/05/16 05:23:45;;;;;;;53.65;22.65;;;11.50;99.90;;;;;;4960409;28;20709;-83
2023/05/16 05:26:10;;;;;;;53.20;22.07;;;11.60;99.90;;;;;;4953632;28;20354;-82
2023/05/16 05:28:36;;;;;;;57.93;22.37;;;11.60;99.90;;;;;;4956920;28;20451;-82
2023/05/16 05:31:04;;;;;;;66.83;23.80;;;11.60;99.90;;;;;;4959668;28;20435;-83
2023/05/16 05:33:29;;;;;;;41.92;21.23;;;11.60;99.90;;;;;;4955514;28;20459;-82
2023/05/16 05:35:55;;;;;;;47.07;20.03;;;11.50;99.90;;;;;;4952943;28;20195;-82
2023/05/16 05:38:21;;;;;;;57.75;21.80;;;11.60;99.90;;;;;;4957083;28;20445;-83
2023/05/16 05:40:48;;;;;;;43.60;20.50;;;11.60;99.90;;;;;;4956421;28;20586;-82
2023/05/16 05:43:14;;;;;;;47.65;20.13;;;11.70;99.90;;;;;;4956008;28;20693;-82
2023/05/16 05:45:39;;;;;;;36.23;18.20;;;11.70;99.90;;;;;;4952497;28;20290;-82
2023/05/16 05:48:05;;;;;;;42.60;19.93;;;11.70;99.90;;;;;;4958410;28;20177;-83
2023/05/16 05:50:31;;;;;;;40.73;17.43;;;11.70;99.90;;;;;;4961983;28;20210;-83
2023/05/16 05:52:56;;;;;;;42.57;18.70;;;11.70;99.90;;;;;;4962936;28;20451;-83
2023/05/16 05:55:22;;;;;;;34.77;17.90;;;11.70;99.90;;;;;;4940819;28;20405;-82
2023/05/16 05:57:47;;;;;;;31.63;15.70;;;11.70;99.90;;;;;;4954008;28;20188;-82
2023/05/16 06:00:13;;;;;;;31.40;16.23;;;11.70;99.90;;;;;;4942322;28;20239;-83
2023/05/16 06:02:39;;;;;;;34.20;16.50;;;11.70;99.90;;;;;;4942691;28;20622;-82
2023/05/16 06:05:05;;;;;;;32.50;16.77;;;11.60;99.90;;;;;;4936723;28;20286;-83
2023/05/16 06:07:30;;;;;;;44.45;15.77;;;11.50;99.90;;;;;;4941472;28;20540;-82
2023/05/16 06:09:56;;;;;;;33.90;16.30;;;11.50;99.90;;;;;;4953844;28;20796;-83
2023/05/16 06:12:21;;;;;;;29.03;14.43;;;11.50;99.90;;;;;;4954926;28;20189;-82
2023/05/16 06:14:47;;;;;;;39.93;17.73;;;11.40;99.90;;;;;;4939895;28;20760;-82
2023/05/16 06:17:12;;;;;;;26.77;14.07;;;11.40;99.90;;;;;;4937748;28;20510;-82
2023/05/16 06:19:38;;;;;;;29.23;13.67;;;11.30;99.90;;;;;;4957009;28;20588;-82
2023/05/16 06:22:03;;;;;;;27.87;13.63;;;11.20;99.90;;;;;;4952933;28;20212;-83
2023/05/16 06:24:29;;;;;;;26.83;14.63;;;11.30;99.90;;;;;;4946434;28;20195;-82
2023/05/16 06:26:54;;;;;;;31.03;14.93;;;11.30;99.90;;;;;;4952719;28;20188;-81
2023/05/16 06:29:20;;;;;;;31.43;14.60;;;11.30;99.90;;;;;;4946131;28;20188;-82
2023/05/16 06:31:46;;;;;;;38.03;15.63;;;11.30;99.90;;;;;;4931713;28;20234;-82
2023/05/16 06:34:11;;;;;;;32.13;15.63;;;11.30;99.90;;;;;;4945485;28;20208;-82
2023/05/16 06:36:37;;;;;;;32.23;15.33;;;11.40;99.90;;;;;;4946608;28;20478;-82
2023/05/16 06:39:03;;;;;;;24.90;11.90;;;11.40;99.90;;;;;;4947625;28;20218;-81
2023/05/16 06:41:29;;;;;;;29.95;15.70;;;11.40;99.90;;;;;;4937112;28;20207;-82
2023/05/16 06:43:55;;;;;;;34.93;16.43;;;11.40;99.90;;;;;;4952480;28;20231;-82
2023/05/16 06:46:21;;;;;;;26.23;14.77;;;11.80;99.90;;;;;;4936438;28;20223;-81
2023/05/16 06:48:46;;;;;;;34.10;15.50;;;11.80;99.90;;;;;;4953489;28;20187;-82
2023/05/16 06:51:12;;;;;;;30.13;15.70;;;12.00;99.90;;;;;;4956832;28;20216;-82
2023/05/16 06:53:38;;;;;;;35.70;16.83;;;12.10;99.90;;;;;;4952862;28;20220;-81
2023/05/16 06:56:03;;;;;;;28.67;15.83;;;12.20;99.90;;;;;;4956123;28;20195;-82
2023/05/16 06:58:30;;;;;;;33.03;14.40;;;;;;;;;;4939068;28;20633;-82
2023/05/16 07:00:55;;;;;;;32.72;16.23;;;12.10;99.90;;;;;;4955958;28;20246;-83
2023/05/16 07:03:21;;;;;;;30.17;15.97;;;12.10;99.90;;;;;;4939866;28;20220;-81
2023/05/16 07:05:46;;;;;;;33.73;17.37;;;12.00;99.90;;;;;;4943295;28;20188;-83
2023/05/16 07:08:12;;;;;;;35.10;16.77;;;11.90;99.90;;;;;;4936788;28;20242;-82
2023/05/16 07:10:38;;;;;;;36.13;15.07;;;11.80;99.90;;;;;;4955026;28;20176;-83
2023/05/16 07:13:04;;;;;;;39.97;19.13;;;11.70;99.90;;;;;;4955506;28;20179;-82
2023/05/16 07:15:30;;;;;;;40.03;15.17;;;11.70;99.90;;;;;;4954918;28;20731;-82
2023/05/16 07:17:56;;;;;;;33.90;16.87;;;11.70;99.90;;;;;;4943281;28;21012;-82
2023/05/16 07:20:21;;;;;;;33.72;16.92;;;11.60;99.90;;;;;;4954464;28;20427;-82
2023/05/16 07:22:47;;;;;;;44.23;17.67;;;11.50;99.90;;;;;;4955965;28;20219;-82
2023/05/16 07:25:14;;;;;;;35.73;17.17;;;11.50;99.90;;;;;;4955150;28;20223;-82
2023/05/16 07:27:43;;;;;;;32.28;16.13;;;11.50;99.90;;;;;;4957689;28;20182;-82
2023/05/16 07:30:13;;;;;;;44.50;16.85;;;11.40;99.90;;;;;;4957501;28;20188;-83
2023/05/16 07:32:39;;;;;;;36.25;16.70;;;11.40;99.90;;;;;;4954824;28;20187;-81
2023/05/16 07:35:05;;;;;;;35.92;15.63;;;11.40;99.90;;;;;;4955581;28;20267;-82
2023/05/16 07:37:30;;;;;;;31.63;15.00;;;11.30;99.90;;;;;;4954433;28;20494;-82
2023/05/16 07:39:56;;;;;;;30.23;16.50;;;11.20;99.90;;;;;;4937259;28;21044;-82
2023/05/16 07:42:21;;;;;;;36.67;16.93;;;11.20;99.90;;;;;;4936832;28;20295;-83
2023/05/16 07:44:47;;;;;;;29.87;14.00;;;11.00;99.90;;;;;;4952277;28;20376;-82
2023/05/16 07:47:12;;;;;;;33.73;17.00;;;11.00;99.90;;;;;;4955487;28;20200;-82
2023/05/16 07:49:38;;;;;;;34.40;15.80;;;11.00;99.90;;;;;;4953944;28;20271;-82
2023/05/16 07:52:04;;;;;;;35.30;16.00;;;10.90;99.90;;;;;;4954691;28;20538;-82
2023/05/16 07:54:30;;;;;;;39.77;15.60;;;11.00;99.90;;;;;;4953150;28;20208;-82
2023/05/16 07:56:56;;;;;;;32.03;18.33;;;11.00;99.90;;;;;;4950630;28;20350;-82
2023/05/16 07:59:21;;;;;;;38.23;16.70;;;11.00;99.90;;;;;;4953633;28;20299;-81
2023/05/16 08:01:47;;;;;;;40.40;17.70;;;10.90;99.90;;;;;;4951418;28;20243;-82
2023/05/16 08:04:13;;;;;;;47.73;17.10;;;10.90;99.90;;;;;;4949038;28;20937;-82
2023/05/16 08:06:38;;;;;;;29.83;16.05;;;10.90;99.90;;;;;;4950715;28;20192;-81
2023/05/16 08:09:04;;;;;;;40.80;17.73;;;11.00;99.90;;;;;;4942328;28;20188;-82
2023/05/16 08:11:29;;;;;;;47.37;17.30;;;11.30;99.90;;;;;;4948928;28;20180;-82
2023/05/16 08:13:55;;;;;;;43.47;15.60;;;11.10;99.90;;;;;;4950964;28;20550;-82
2023/05/16 08:16:20;;;;;;;40.83;17.30;;;11.10;99.90;;;;;;4952882;28;20720;-81
2023/05/16 08:18:46;;;;;;;45.43;16.50;;;11.10;99.90;;;;;;4946797;28;20188;-81
2023/05/16 08:21:12;;;;;;;49.63;20.60;;;11.10;99.90;;;;;;4954149;28;20222;-82
2023/05/16 08:23:38;;;;;;;53.38;19.02;;;11.20;99.90;;;;;;4955013;28;20250;-81
2023/05/16 08:26:04;;;;;;;39.10;17.13;;;11.30;99.90;;;;;;4955548;28;20689;-83
2023/05/16 08:28:30;;;;;;;33.33;15.70;;;11.40;99.90;;;;;;4954188;28;20435;-82
2023/05/16 08:30:55;;;;;;;45.00;18.17;;;11.40;99.90;;;;;;4936977;28;20180;-81
2023/05/16 08:33:21;;;;;;;41.33;15.60;;;11.40;99.90;;;;;;4956944;28;20215;-82
2023/05/16 08:35:48;;;;;;;40.87;18.77;;;11.40;99.90;;;;;;4942135;28;20192;-82
2023/05/16 08:38:14;;;;;;;41.40;16.10;;;;;;;;;;4956122;28;20191;-82
2023/05/16 08:40:42;;;;;;;39.22;19.13;;;11.80;99.90;;;;;;4955597;28;20188;-82
2023/05/16 08:43:07;;;;;;;42.53;17.30;;;12.20;99.90;;;;;;4954301;28;20582;-82
2023/05/16 08:45:33;;;;;;;37.83;15.93;;;12.20;99.90;;;;;;4952251;28;20223;-81
2023/05/16 08:48:00;;;;;;;42.40;18.67;;;12.30;99.90;;;;;;4956783;28;20186;-83
2023/05/16 08:50:30;;;;;;;34.22;15.80;;;12.30;99.90;;;;;;4955512;28;20442;-82
2023/05/16 08:52:56;;;;;;;32.08;14.55;;;;;;;;;;4954427;28;20638;-82
2023/05/16 08:55:23;;;;;;;29.37;14.70;;;12.10;99.90;;;;;;4956284;28;20279;-82
2023/05/16 08:57:50;;;;;;;34.42;16.67;;;12.70;99.90;;;;;;4956406;28;20443;-82
2023/05/16 09:00:18;;;;;;;31.17;15.05;;;12.70;99.90;;;;;;4955741;28;20185;-82
2023/05/16 09:02:44;;;;;;;36.35;15.45;;;12.80;99.90;;;;;;4954600;28;20237;-82
2023/05/16 09:05:14;;;;;;;29.40;14.73;;;12.90;99.90;;;;;;4951986;28;20200;-82
2023/05/16 09:07:41;;;;;;;23.63;12.70;;;12.90;99.90;;;;;;4953348;28;20818;-82
2023/05/16 09:10:07;;;;;;;26.53;13.90;;;12.90;99.90;;;;;;4954602;28;20823;-83
2023/05/16 09:12:33;;;;;;;30.40;14.20;;;13.00;99.90;;;;;;4957878;28;20431;-83
2023/05/16 09:15:04;;;;;;;26.00;13.30;;;13.00;99.90;;;;;;4955058;28;20465;-81
2023/05/16 09:17:44;;;;;;;29.88;13.55;;;13.00;99.90;;;;;;4955734;28;20552;-83
2023/05/16 09:20:12;;;;;;;25.88;13.45;;;13.00;99.90;;;;;;4953921;28;20206;-82
2023/05/16 09:22:38;;;;;;;23.10;12.07;;;13.10;99.90;;;;;;4953683;28;20224;-81
2023/05/16 09:25:04;;;;;;;27.27;12.15;;;13.00;99.90;;;;;;4958078;28;20480;-82
2023/05/16 09:27:30;;;;;;;32.28;13.18;;;13.00;99.90;;;;;;4938764;28;20263;-82
2023/05/16 09:29:58;;;;;;;23.70;12.48;;;13.10;99.90;;;;;;4959205;28;20208;-81
2023/05/16 09:32:24;;;;;;;25.88;11.07;;;12.90;99.90;;;;;;4948886;28;20712;-81
2023/05/16 09:34:51;;;;;;;19.47;11.30;;;13.00;99.90;;;;;;4949962;28;20681;-81
2023/05/16 09:37:18;;;;;;;21.53;11.33;;;13.00;99.90;;;;;;4955320;28;20445;-81
2023/05/16 09:39:49;;;;;;;26.77;12.50;;;13.10;99.90;;;;;;4958685;28;20443;-81
2023/05/16 09:42:18;;;;;;;23.65;10.20;;;13.20;99.90;;;;;;4956546;28;20226;-82
2023/05/16 09:44:55;;;;;;;18.58;8.52;;;13.20;99.90;;;;;;4958050;28;20206;-81
2023/05/16 09:47:21;;;;;;;19.30;8.85;;;13.10;99.90;;;;;;4956820;28;20704;-81
2023/05/16 09:49:51;;;;;;;20.53;10.30;;;13.10;99.90;;;;;;4938968;28;20190;-82
2023/05/16 09:52:17;;;;;;;23.70;10.17;;;13.10;99.90;;;;;;4957331;28;20439;-82
2023/05/16 09:54:47;;;;;;;16.67;9.03;;;13.20;99.90;;;;;;4940568;28;20551;-81
2023/05/16 09:57:20;;;;;;;15.50;8.35;;;13.50;99.90;;;;;;4957372;28;20507;-82
2023/05/16 09:59:47;;;;;;;12.80;6.87;;;;;;;;;;4942346;28;20183;-82
2023/05/16 10:02:13;;;;;;;17.30;6.60;;;13.70;99.90;;;;;;4958820;28;20836;-82
2023/05/16 10:04:39;;;;;;;11.67;6.90;;;13.90;99.90;;;;;;4958133;28;20498;-82
2023/05/16 10:07:08;;;;;;;10.73;6.13;;;13.80;99.90;;;;;;4955861;28;20944;-81
2023/05/16 10:09:35;;;;;;;9.00;5.63;;;13.80;99.90;;;;;;4956378;28;20311;-83
2023/05/16 10:12:03;;;;;;;5.70;4.23;;;13.60;99.90;;;;;;4944591;28;20519;-81
2023/05/16 10:14:32;;;;;;;10.07;4.43;;;13.60;99.90;;;;;;4957911;28;20439;-82
2023/05/16 10:16:59;;;;;;;6.40;4.60;;;13.40;99.90;;;;;;4958820;28;20428;-82
2023/05/16 10:19:25;;;;;;;10.30;5.30;;;13.10;99.90;;;;;;4957801;28;20436;-82
2023/05/16 10:21:58;;;;;;;9.10;5.90;;;12.50;99.90;;;;;;4959415;28;20182;-82
2023/05/16 10:24:30;;;;;;;17.60;6.45;;;12.50;99.90;;;;;;4957803;28;20198;-81
2023/05/16 10:26:56;;;;;;;14.77;5.40;;;12.20;99.90;;;;;;4956102;28;20319;-82
2023/05/16 10:29:23;;;;;;;10.07;5.83;;;12.00;99.90;;;;;;4962295;28;20684;-82
2023/05/16 10:31:49;;;;;;;9.43;5.80;;;12.10;99.90;;;;;;4946470;28;20420;-81
2023/05/16 10:34:16;;;;;;;9.38;4.55;;;12.10;99.90;;;;;;4945146;28;20211;-83
2023/05/16 10:36:43;;;;;;;16.58;7.13;;;12.20;99.90;;;;;;4944286;28;21873;-82
2023/05/16 10:39:10;;;;;;;5.90;4.60;;;12.40;99.90;;;;;;4944018;28;20306;-82
2023/05/16 10:41:35;;;;;;;9.05;4.30;;;12.40;99.90;;;;;;4961393;28;20588;-82
2023/05/16 10:44:01;;;;;;;5.50;3.80;;;12.30;99.90;;;;;;4959981;28;20235;-81
2023/05/16 10:46:29;;;;;;;9.50;5.40;;;12.40;99.90;;;;;;4962801;28;20176;-82
2023/05/16 10:48:55;;;;;;;5.70;3.80;;;12.50;99.90;;;;;;4961916;28;20501;-82
2023/05/16 10:51:21;;;;;;;8.70;4.10;;;;;;;;;;4944709;28;20180;-81
2023/05/16 10:53:49;;;;;;;18.03;4.47;;;12.90;99.90;;;;;;4959150;28;20724;-82
2023/05/16 10:56:22;;;;;;;4.72;2.97;;;13.10;99.90;;;;;;4962225;28;20432;-81
2023/05/16 10:58:48;;;;;;;4.23;3.30;;;13.10;99.90;;;;;;4962672;28;20629;-82
2023/05/16 11:01:28;;;;;;;4.90;2.97;;;13.00;99.90;;;;;;4947669;28;20432;-81
2023/05/16 11:03:59;;;;;;;3.50;2.75;;;13.10;99.90;;;;;;4944075;28;20471;-82
2023/05/16 11:06:33;;;;;;;2.90;2.45;;;13.20;99.90;;;;;;4961388;28;20275;-82
2023/05/16 11:09:10;;;;;;;4.70;3.13;;;13.30;99.90;;;;;;4960520;28;20192;-81
2023/05/16 11:11:51;;;;;;;4.00;2.97;;;13.50;99.90;;;;;;4944375;28;20643;-82
2023/05/16 11:14:41;;;;;;;6.35;3.65;;;13.80;99.90;;;;;;4960860;28;21238;-82
2023/05/16 11:17:12;;;;;;;4.17;2.80;;;13.90;99.90;;;;;;4944845;28;20196;-82
2023/05/16 11:19:46;;;;;;;3.50;2.90;;;13.60;99.90;;;;;;4943363;28;20467;-81
2023/05/16 11:22:33;;;;;;;4.97;2.85;;;13.40;99.90;;;;;;4960147;28;20212;-79
2023/05/16 11:25:01;;;;;;;5.50;3.33;;;13.10;99.90;;;;;;4958512;28;20556;-81
2023/05/16 11:27:28;;;;;;;4.15;2.80;;;13.10;99.90;;;;;;4950939;28;20191;-82
2023/05/16 11:29:57;;;;;;;4.18;2.92;;;13.10;99.90;;;;;;4960038;28;20203;-82
2023/05/16 11:32:23;;;;;;;3.47;3.00;;;13.10;99.90;;;;;;4959315;28;20187;-82
2023/05/16 11:34:50;;;;;;;4.83;3.10;;;13.30;99.90;;;;;;4958085;28;20276;-81
2023/05/16 11:37:18;;;;;;;4.78;3.88;;;13.10;99.90;;;;;;4960813;28;20168;-82
2023/05/16 11:39:45;;;;;;;4.40;2.60;;;13.10;99.90;;;;;;4960074;28;20199;-81
2023/05/16 11:42:12;;;;;;;2.72;2.53;;;13.00;99.90;;;;;;4946957;28;20219;-81
2023/05/16 11:44:38;;;;;;;3.22;2.28;;;13.00;99.90;;;;;;4962562;28;20222;-82
2023/05/16 11:47:04;;;;;;;2.65;1.85;;;13.10;99.90;;;;;;4948541;28;20245;-82
2023/05/16 11:49:30;;;;;;;3.92;2.78;;;12.60;99.90;;;;;;4961060;28;20251;-82
2023/05/16 11:51:56;;;;;;;2.20;1.90;;;12.20;99.90;;;;;;4950334;28;20899;-82
2023/05/16 11:54:23;;;;;;;4.78;2.72;;;12.20;99.90;;;;;;4964176;28;21146;-81
2023/05/16 11:56:52;;;;;;;3.65;2.55;;;12.00;99.90;;;;;;4964175;28;20265;-81
2023/05/16 11:59:17;;;;;;;3.63;2.45;;;12.00;99.90;;;;;;4961194;28;20180;-82
2023/05/16 12:01:43;;;;;;;4.83;2.40;;;11.90;99.90;;;;;;4962173;28;20195;-81
2023/05/16 12:04:13;;;;;;;3.60;3.00;;;11.90;99.90;;;;;;4958791;28;20986;-80
2023/05/16 12:06:39;;;;;;;2.28;1.90;;;12.00;99.90;;;;;;4959724;28;20187;-82
2023/05/16 12:09:10;;;;;;;3.47;2.10;;;12.00;99.90;;;;;;4975888;28;20191;-83
2023/05/16 12:11:43;;;;;;;3.10;2.10;;;11.80;99.90;;;;;;4961098;28;20294;-84
2023/05/16 12:14:11;;;;;;;3.33;2.28;;;11.70;99.90;;;;;;4971795;28;20212;-84
2023/05/16 12:16:38;;;;;;;4.30;1.50;;;11.70;99.90;;;;;;4964364;28;20179;-83
2023/05/16 12:19:07;;;;;;;2.58;1.45;;;11.60;99.90;;;;;;4962173;28;20172;-82
2023/05/16 12:21:33;;;;;;;2.85;1.70;;;11.60;99.90;;;;;;4961361;28;20238;-83
2023/05/16 12:23:59;;;;;;;1.10;0.90;;;11.60;99.90;;;;;;4979094;28;20573;-84
2023/05/16 12:26:30;;;;;;;2.58;1.75;;;11.60;99.90;;;;;;4961838;28;20199;-83
2023/05/16 12:28:59;;;;;;;1.50;1.27;;;11.70;99.90;;;;;;4961330;28;20246;-83
2023/05/16 12:31:25;;;;;;;1.23;0.82;;;11.80;99.90;;;;;;4958703;28;20537;-83
2023/05/16 12:33:54;;;;;;;1.27;1.17;;;11.90;99.90;;;;;;4971991;28;20221;-83
2023/05/16 12:36:20;;;;;;;1.58;1.48;;;11.90;99.90;;;;;;4943485;29;20427;-83